createdAt,value
2023-05-16T00:00:01.650Z,101719.75
2023-05-16T00:02:31.554Z,101721.41
2023-05-16T00:04:59.945Z,101722.31
2023-05-16T00:07:28.262Z,101735.91
2023-05-16T00:09:56.718Z,101737.97
2023-05-16T00:12:25.120Z,101735.47
2023-05-16T00:14:53.563Z,101738.97
2023-05-16T00:17:22.118Z,101740.47
2023-05-16T00:19:58.217Z,101743.88
2023-05-16T00:22:27.218Z,101742.72
2023-05-16T00:24:55.630Z,101748.84
2023-05-16T00:27:23.852Z,101748.84
2023-05-16T00:29:52.125Z,101749.88
2023-05-16T00:32:20.706Z,101744.78
2023-05-16T00:34:49.229Z,101754.50
2023-05-16T00:37:18.925Z,101751.78
2023-05-16T00:39:47.206Z,101750.66
2023-05-16T00:42:15.606Z,101756.53
2023-05-16T00:44:43.831Z,101755.28
2023-05-16T00:47:12.067Z,101753.25
2023-05-16T00:49:40.636Z,101755.41
2023-05-16T00:52:08.942Z,101758.22
2023-05-16T00:54:38.598Z,101755.19
2023-05-16T00:57:08.053Z,101751.38
2023-05-16T00:59:36.776Z,101759.16
2023-05-16T01:02:05.148Z,101758.38
2023-05-16T01:04:34.754Z,101749.00
2023-05-16T01:07:03.897Z,101758.22
2023-05-16T01:09:32.445Z,101751.56
2023-05-16T01:12:11.131Z,101751.44
2023-05-16T01:14:48.504Z,101758.16
2023-05-16T01:17:26.844Z,101757.34
2023-05-16T01:20:08.205Z,101751.94
2023-05-16T01:22:53.909Z,101759.59
2023-05-16T01:25:47.143Z,101762.22
2023-05-16T01:28:19.258Z,101765.59
2023-05-16T01:30:47.673Z,101763.22
2023-05-16T01:33:16.136Z,101772.81
2023-05-16T01:35:55.451Z,101766.81
2023-05-16T01:38:28.112Z,101769.88
2023-05-16T01:41:04.838Z,101770.56
2023-05-16T01:43:45.387Z,101788.41
2023-05-16T01:46:16.800Z,101787.63
2023-05-16T01:48:54.212Z,101785.00
2023-05-16T01:51:26.187Z,101795.53
2023-05-16T01:54:05.021Z,101795.53
2023-05-16T01:56:34.880Z,101799.03
2023-05-16T01:59:05.779Z,101791.56
2023-05-16T02:01:34.102Z,101784.09
2023-05-16T02:04:02.408Z,101786.22
2023-05-16T02:06:30.736Z,101798.56
2023-05-16T02:08:58.990Z,101792.69
2023-05-16T02:11:27.347Z,101803.75
2023-05-16T02:13:55.655Z,101803.28
2023-05-16T02:16:25.277Z,101803.91
2023-05-16T02:18:53.583Z,101797.28
2023-05-16T02:21:21.811Z,101815.78
2023-05-16T02:23:50.100Z,101813.72
2023-05-16T02:26:18.286Z,101819.50
2023-05-16T02:28:46.634Z,101827.16
2023-05-16T02:31:15.389Z,101829.06
2023-05-16T02:33:45.028Z,101837.09
2023-05-16T02:36:13.750Z,101842.38
2023-05-16T02:38:41.955Z,101835.38
2023-05-16T02:41:10.179Z,101843.84
2023-05-16T02:43:38.376Z,101842.25
2023-05-16T02:46:14.479Z,101839.75
2023-05-16T02:48:44.084Z,101841.97
2023-05-16T02:51:12.421Z,101844.25
2023-05-16T02:53:40.654Z,101855.41
2023-05-16T02:56:10.211Z,101845.22
2023-05-16T02:58:38.444Z,101856.38
2023-05-16T03:01:07.003Z,101862.50
2023-05-16T03:03:36.474Z,101853.88
2023-05-16T03:06:06.600Z,101858.81
2023-05-16T03:08:35.169Z,101863.03
2023-05-16T03:11:03.472Z,101869.06
2023-05-16T03:13:31.829Z,101873.22
2023-05-16T03:16:00.267Z,101866.56
2023-05-16T03:18:28.484Z,101869.59
2023-05-16T03:20:57.529Z,101873.25
2023-05-16T03:23:27.249Z,101865.03
2023-05-16T03:25:56.176Z,101861.88
2023-05-16T03:28:24.427Z,101868.69
2023-05-16T03:30:52.709Z,101878.31
2023-05-16T03:33:21.008Z,101873.50
2023-05-16T03:35:49.279Z,101873.41
2023-05-16T03:38:17.633Z,101875.94
2023-05-16T03:40:47.210Z,101880.91
2023-05-16T03:43:15.523Z,101873.94
2023-05-16T03:45:44.313Z,101888.56
2023-05-16T03:48:12.790Z,101888.09
2023-05-16T03:50:41.330Z,101889.22
2023-05-16T03:53:09.920Z,101901.94
2023-05-16T03:55:38.124Z,101898.00
2023-05-16T03:58:08.005Z,101903.72
2023-05-16T04:00:36.822Z,101895.94
2023-05-16T04:03:05.488Z,101909.47
2023-05-16T04:05:33.733Z,101906.75
2023-05-16T04:08:02.053Z,101912.16
2023-05-16T04:10:30.568Z,101917.59
2023-05-16T04:12:58.846Z,101917.59
2023-05-16T04:15:28.684Z,101917.59
2023-05-16T04:17:57.245Z,101930.00
2023-05-16T04:20:25.505Z,101924.72
2023-05-16T04:22:53.885Z,101933.19
2023-05-16T04:25:22.096Z,101928.56
2023-05-16T04:27:50.434Z,101932.84
2023-05-16T04:30:18.938Z,101935.22
2023-05-16T04:32:48.597Z,101934.91
2023-05-16T04:35:17.039Z,101937.75
2023-05-16T04:37:45.694Z,101939.81
2023-05-16T04:40:14.976Z,101944.59
2023-05-16T04:42:43.264Z,101950.13
2023-05-16T04:45:14.623Z,101947.13
2023-05-16T04:47:42.952Z,101955.72
2023-05-16T04:50:13.066Z,101951.69
2023-05-16T04:52:42.538Z,101949.88
2023-05-16T04:55:12.369Z,101961.22
2023-05-16T04:57:40.610Z,101957.38
2023-05-16T05:00:12.150Z,101956.41
2023-05-16T05:02:40.851Z,101957.03
2023-05-16T05:05:12.187Z,101961.44
2023-05-16T05:07:40.926Z,101963.19
2023-05-16T05:10:11.721Z,101966.16
2023-05-16T05:12:39.963Z,101961.19
2023-05-16T05:15:09.344Z,101966.59
2023-05-16T05:17:38.763Z,101970.94
2023-05-16T05:20:08.765Z,101972.97
2023-05-16T05:22:38.363Z,101980.44
2023-05-16T05:25:08.404Z,101978.53
2023-05-16T05:27:36.737Z,101980.91
2023-05-16T05:30:06.187Z,101983.44
2023-05-16T05:32:34.473Z,101988.19
2023-05-16T05:35:03.856Z,101988.00
2023-05-16T05:37:32.127Z,101994.03
2023-05-16T05:40:01.934Z,101991.75
2023-05-16T05:42:30.173Z,101989.66
2023-05-16T05:44:58.612Z,101994.91
2023-05-16T05:47:27.396Z,102002.34
2023-05-16T05:49:55.766Z,101999.31
2023-05-16T05:52:24.107Z,102004.75
2023-05-16T05:54:52.340Z,102001.22
2023-05-16T05:57:22.064Z,101998.50
2023-05-16T05:59:50.578Z,102004.41
2023-05-16T06:02:19.285Z,102007.59
2023-05-16T06:04:48.468Z,101999.59
2023-05-16T06:07:18.310Z,102005.59
2023-05-16T06:09:46.841Z,102010.22
2023-05-16T06:12:15.190Z,102019.63
2023-05-16T06:14:44.752Z,102014.44
2023-05-16T06:17:13.036Z,102011.34
2023-05-16T06:19:41.515Z,102015.91
2023-05-16T06:22:09.740Z,102011.41
2023-05-16T06:24:37.988Z,102022.00
2023-05-16T06:27:07.285Z,102024.53
2023-05-16T06:29:35.638Z,102024.97
2023-05-16T06:32:05.574Z,102032.31
2023-05-16T06:34:33.838Z,102027.25
2023-05-16T06:37:03.757Z,102036.19
2023-05-16T06:39:32.024Z,102035.41
2023-05-16T06:42:00.309Z,102032.31
2023-05-16T06:44:28.706Z,102039.13
2023-05-16T06:46:57.272Z,102042.31
2023-05-16T06:49:27.222Z,102038.47
2023-05-16T06:51:55.544Z,102038.16
2023-05-16T06:54:23.874Z,102030.91
2023-05-16T06:56:52.464Z,102030.72
2023-05-16T06:59:20.878Z,102029.34
2023-05-16T07:01:49.297Z,102033.72
2023-05-16T07:04:17.839Z,102035.88
2023-05-16T07:06:47.465Z,102035.22
2023-05-16T07:09:15.777Z,102041.44
2023-05-16T07:11:44.349Z,102041.75
2023-05-16T07:14:12.694Z,102040.50
2023-05-16T07:16:41.060Z,102039.31
2023-05-16T07:19:10.526Z,102050.78
2023-05-16T07:21:38.980Z,102052.81
2023-05-16T07:24:09.211Z,102054.69
2023-05-16T07:26:37.522Z,102048.09
2023-05-16T07:29:05.779Z,102044.88
2023-05-16T07:31:34.212Z,102045.63
2023-05-16T07:34:02.547Z,102045.81
2023-05-16T07:36:31.256Z,102052.34
2023-05-16T07:38:59.550Z,102047.38
2023-05-16T07:41:29.889Z,102052.41
2023-05-16T07:43:58.424Z,102051.19
2023-05-16T07:46:26.933Z,102048.91
2023-05-16T07:48:55.375Z,102050.75
2023-05-16T07:51:23.655Z,102049.13
2023-05-16T07:53:52.324Z,102052.97
2023-05-16T07:56:21.665Z,102055.34
2023-05-16T07:58:51.570Z,102053.22
2023-05-16T08:01:20.045Z,102051.56
2023-05-16T08:03:48.380Z,102055.78
2023-05-16T08:06:16.874Z,102049.56
2023-05-16T08:08:45.155Z,102046.56
2023-05-16T08:11:13.400Z,102045.50
2023-05-16T08:13:41.659Z,102047.31
2023-05-16T08:16:11.748Z,102043.31
2023-05-16T08:18:40.189Z,102043.59
2023-05-16T08:21:09.148Z,102045.13
2023-05-16T08:23:37.468Z,102045.00
2023-05-16T08:26:06.054Z,102042.53
2023-05-16T08:28:34.365Z,102044.88
2023-05-16T08:31:02.668Z,102046.25
2023-05-16T08:33:32.380Z,102043.59
2023-05-16T08:36:01.188Z,102049.59
2023-05-16T08:38:29.605Z,102052.16
2023-05-16T08:40:58.050Z,102050.47
2023-05-16T08:43:26.369Z,102053.56
2023-05-16T08:45:54.745Z,102057.72
2023-05-16T08:48:25.599Z,102052.84
2023-05-16T08:50:55.351Z,102051.06
2023-05-16T08:53:27.956Z,102053.94
2023-05-16T08:55:57.021Z,102059.53
2023-05-16T08:58:26.221Z,102058.28
2023-05-16T09:00:54.654Z,102045.16
2023-05-16T09:03:25.235Z,102052.56
2023-05-16T09:05:54.973Z,102035.19
2023-05-16T09:08:23.205Z,102050.94
2023-05-16T09:10:51.507Z,102048.66
2023-05-16T09:13:19.818Z,102051.19
2023-05-16T09:15:48.103Z,102049.34
2023-05-16T09:18:16.404Z,102038.59
2023-05-16T09:20:47.846Z,102043.78
2023-05-16T09:23:25.260Z,102047.53
2023-05-16T09:25:55.070Z,102043.53
2023-05-16T09:28:23.920Z,102049.25
2023-05-16T09:30:54.353Z,102050.47
2023-05-16T09:33:24.692Z,102049.63
2023-05-16T09:35:58.343Z,102045.56
2023-05-16T09:38:29.475Z,102049.25
2023-05-16T09:40:57.866Z,102048.22
2023-05-16T09:43:31.033Z,102035.75
2023-05-16T09:46:01.435Z,102036.81
2023-05-16T09:48:29.706Z,102039.41
2023-05-16T09:51:03.492Z,102039.22
2023-05-16T09:53:34.718Z,102032.84
2023-05-16T09:56:05.209Z,102035.22
2023-05-16T09:58:35.355Z,102043.09
2023-05-16T10:01:04.358Z,102033.97
2023-05-16T10:03:35.814Z,102031.56
2023-05-16T10:06:05.893Z,102031.09
2023-05-16T10:08:37.892Z,102034.06
2023-05-16T10:11:07.581Z,102040.19
2023-05-16T10:13:37.765Z,102035.00
2023-05-16T10:16:09.749Z,102034.88
2023-05-16T10:18:40.046Z,102036.66
2023-05-16T10:21:12.243Z,102028.50
2023-05-16T10:23:44.194Z,102028.50
2023-05-16T10:26:14.819Z,102024.56
2023-05-16T10:28:43.622Z,102019.66
2023-05-16T10:31:12.725Z,102025.13
2023-05-16T10:33:41.510Z,102041.38
2023-05-16T10:36:11.378Z,102039.16
2023-05-16T10:38:42.084Z,102045.13
2023-05-16T10:41:11.280Z,102044.47
2023-05-16T10:43:40.161Z,102033.44
2023-05-16T10:46:11.913Z,102042.03
2023-05-16T10:48:42.171Z,102047.00
2023-05-16T10:51:38.699Z,102039.31
2023-05-16T10:54:12.614Z,102040.56
2023-05-16T10:56:41.151Z,102043.69
2023-05-16T10:59:26.285Z,102040.31
2023-05-16T11:01:56.040Z,102039.88
2023-05-16T11:04:24.555Z,102032.53
2023-05-16T11:06:54.759Z,102034.66
2023-05-16T11:09:28.269Z,102036.69
2023-05-16T11:12:00.448Z,102033.75
2023-05-16T11:14:32.310Z,102037.66
2023-05-16T11:17:08.627Z,102029.44
2023-05-16T11:19:42.844Z,102032.16
2023-05-16T11:22:15.805Z,102026.50
2023-05-16T11:24:55.477Z,102022.50
2023-05-16T11:27:29.922Z,102018.56
2023-05-16T11:30:03.558Z,102015.63
2023-05-16T11:32:35.041Z,102019.75
2023-05-16T11:35:04.565Z,102026.22
2023-05-16T11:37:33.284Z,102021.78
2023-05-16T11:40:07.082Z,102010.19
2023-05-16T11:42:38.406Z,102024.63
2023-05-16T11:45:12.273Z,102021.66
2023-05-16T11:47:41.876Z,102019.56
2023-05-16T11:50:14.430Z,102017.31
2023-05-16T11:52:50.516Z,102016.28
2023-05-16T11:55:39.571Z,102016.75
2023-05-16T11:58:10.189Z,102010.94
2023-05-16T12:00:38.625Z,102015.72
2023-05-16T12:03:08.226Z,102014.59
2023-05-16T12:05:36.795Z,102006.06
2023-05-16T12:08:07.144Z,102019.16
2023-05-16T12:10:36.872Z,102012.53
2023-05-16T12:13:05.606Z,102024.34
2023-05-16T12:15:34.546Z,102022.75
2023-05-16T12:18:03.609Z,102029.78
2023-05-16T12:20:32.063Z,102032.47
2023-05-16T12:23:00.385Z,102029.72
2023-05-16T12:25:32.084Z,102027.75
2023-05-16T12:28:07.850Z,102028.91
2023-05-16T12:30:36.300Z,102036.28
2023-05-16T12:33:09.958Z,102021.66
2023-05-16T12:35:41.689Z,102030.16
2023-05-16T12:38:11.773Z,102018.34
2023-05-16T12:40:41.632Z,102011.66
2023-05-16T12:43:17.126Z,102018.44
2023-05-16T12:45:52.911Z,102018.53
2023-05-16T12:48:22.075Z,102015.78
2023-05-16T12:50:51.700Z,102018.50
2023-05-16T12:53:20.534Z,102025.47
2023-05-16T12:55:48.847Z,102025.75
2023-05-16T12:58:19.926Z,102032.72
2023-05-16T13:00:48.674Z,102027.47
2023-05-16T13:03:17.077Z,102035.19
2023-05-16T13:05:45.846Z,102026.47
2023-05-16T13:08:14.144Z,102030.69
2023-05-16T13:10:42.839Z,102020.06
2023-05-16T13:13:13.700Z,102024.28
2023-05-16T13:15:47.281Z,102024.63
2023-05-16T13:18:15.830Z,102023.88
2023-05-16T13:20:44.441Z,102034.09
2023-05-16T13:23:12.700Z,102026.28
2023-05-16T13:25:41.065Z,102026.66
2023-05-16T13:28:09.347Z,102039.09
2023-05-16T13:30:37.717Z,102041.69
2023-05-16T13:33:07.535Z,102037.31
2023-05-16T13:35:35.910Z,102035.97
2023-05-16T13:38:04.834Z,102033.59
2023-05-16T13:40:33.284Z,102041.38
2023-05-16T13:43:02.065Z,102039.81
2023-05-16T13:45:31.483Z,102038.28
2023-05-16T13:47:59.920Z,102050.84
2023-05-16T13:50:33.059Z,102041.53
2023-05-16T13:53:02.005Z,102038.03
2023-05-16T13:55:30.616Z,102054.13
2023-05-16T13:57:58.997Z,102054.06
2023-05-16T14:00:43.403Z,102060.63
2023-05-16T14:03:12.318Z,102065.28
2023-05-16T14:05:42.454Z,102062.53
2023-05-16T14:08:10.850Z,102064.50
2023-05-16T14:10:39.139Z,102062.84
2023-05-16T14:13:07.548Z,102068.66
2023-05-16T14:15:35.864Z,102071.38
2023-05-16T14:18:04.854Z,102075.31
2023-05-16T14:20:33.364Z,102077.16
2023-05-16T14:23:03.905Z,102082.63
2023-05-16T14:25:32.296Z,102090.47
2023-05-16T14:28:00.601Z,102085.66
2023-05-16T14:30:29.358Z,102089.88
2023-05-16T14:32:59.424Z,102091.75
2023-05-16T14:35:28.005Z,102101.13
2023-05-16T14:37:56.619Z,102092.13
2023-05-16T14:40:26.306Z,102097.19
2023-05-16T14:42:54.579Z,102101.81
2023-05-16T14:45:22.933Z,102097.09
2023-05-16T14:47:51.287Z,102100.84
2023-05-16T14:50:19.694Z,102103.16
2023-05-16T14:52:47.980Z,102100.78
2023-05-16T14:55:16.398Z,102108.63
2023-05-16T14:57:46.716Z,102102.78
2023-05-16T15:00:18.123Z,102105.50
2023-05-16T15:02:46.482Z,102103.81
2023-05-16T15:05:14.876Z,102099.91
2023-05-16T15:07:43.954Z,102103.75
2023-05-16T15:10:12.711Z,102114.69
2023-05-16T15:12:43.352Z,102102.19
2023-05-16T15:15:14.942Z,102106.09
2023-05-16T15:17:44.789Z,102101.34
2023-05-16T15:20:14.026Z,102094.69
2023-05-16T15:22:42.567Z,102097.34
2023-05-16T15:25:13.191Z,102096.50
2023-05-16T15:27:41.543Z,102094.50
2023-05-16T15:30:12.546Z,102091.78
2023-05-16T15:32:40.736Z,102098.06
2023-05-16T15:35:09.890Z,102101.28
2023-05-16T15:37:39.022Z,102106.41
2023-05-16T15:40:10.622Z,102111.13
2023-05-16T15:42:39.208Z,102112.72
2023-05-16T15:45:09.406Z,102115.44
2023-05-16T15:47:39.139Z,102119.72
2023-05-16T15:50:08.318Z,102117.75
2023-05-16T15:52:36.903Z,102122.44
2023-05-16T15:55:05.981Z,102123.22
2023-05-16T15:57:34.293Z,102120.91
2023-05-16T16:00:02.605Z,102120.13
2023-05-16T16:02:30.924Z,102117.41
2023-05-16T16:05:00.647Z,102125.59
2023-05-16T16:07:28.988Z,102127.09
2023-05-16T16:09:59.565Z,102129.41
2023-05-16T16:12:31.204Z,102122.72
2023-05-16T16:14:59.922Z,102129.34
2023-05-16T16:17:28.259Z,102127.72
2023-05-16T16:19:56.780Z,102132.78
2023-05-16T16:22:26.709Z,102126.34
2023-05-16T16:24:55.053Z,102138.31
2023-05-16T16:27:23.527Z,102138.97
2023-05-16T16:29:51.762Z,102142.78
2023-05-16T16:32:20.173Z,102141.16
2023-05-16T16:34:49.373Z,102136.38
2023-05-16T16:37:17.800Z,102137.13
2023-05-16T16:39:47.555Z,102137.81
2023-05-16T16:42:15.864Z,102140.16
2023-05-16T16:44:44.120Z,102146.75
2023-05-16T16:47:12.574Z,102140.84
2023-05-16T16:49:41.479Z,102143.97
2023-05-16T16:52:10.058Z,102139.22
2023-05-16T16:54:38.523Z,102145.03
2023-05-16T16:57:08.480Z,102150.06
2023-05-16T16:59:36.926Z,102141.44
2023-05-16T17:02:05.851Z,102143.72
2023-05-16T17:04:35.630Z,102152.63
2023-05-16T17:07:03.967Z,102152.25
2023-05-16T17:09:32.273Z,102154.97
2023-05-16T17:12:04.574Z,102153.72
2023-05-16T17:14:36.216Z,102152.91
2023-05-16T17:17:04.877Z,102154.81
2023-05-16T17:19:33.276Z,102160.28
2023-05-16T17:22:01.599Z,102156.66
2023-05-16T17:24:29.889Z,102161.22
2023-05-16T17:26:58.164Z,102170.59
2023-05-16T17:29:27.199Z,102166.63
2023-05-16T17:31:57.145Z,102164.69
2023-05-16T17:34:25.865Z,102167.34
2023-05-16T17:36:54.149Z,102175.88
2023-05-16T17:39:22.674Z,102175.44
2023-05-16T17:41:50.915Z,102173.44
2023-05-16T17:44:19.150Z,102174.94
2023-05-16T17:46:47.513Z,102176.44
2023-05-16T17:49:17.622Z,102177.13
2023-05-16T17:51:51.004Z,102175.91
2023-05-16T17:54:20.342Z,102183.66
2023-05-16T17:56:50.375Z,102186.31
2023-05-16T17:59:19.349Z,102185.44
2023-05-16T18:01:48.270Z,102183.75
2023-05-16T18:04:20.748Z,102182.97
2023-05-16T18:06:52.500Z,102188.78
2023-05-16T18:09:21.806Z,102181.75
2023-05-16T18:11:50.451Z,102185.94
2023-05-16T18:14:18.921Z,102173.50
2023-05-16T18:16:47.236Z,102188.25
2023-05-16T18:19:17.171Z,102187.03
2023-05-16T18:21:45.580Z,102184.63
2023-05-16T18:24:13.959Z,102184.63
2023-05-16T18:26:44.386Z,102194.34
2023-05-16T18:29:12.912Z,102199.00
2023-05-16T18:31:43.175Z,102200.13
2023-05-16T18:34:12.019Z,102196.19
2023-05-16T18:36:41.677Z,102191.44
2023-05-16T18:39:10.689Z,102195.28
2023-05-16T18:41:39.186Z,102200.31
2023-05-16T18:44:07.523Z,102196.34
2023-05-16T18:46:35.965Z,102194.75
2023-05-16T18:49:04.289Z,102187.63
2023-05-16T18:51:32.542Z,102198.47
2023-05-16T18:54:03.980Z,102203.44
2023-05-16T18:56:32.317Z,102200.72
2023-05-16T18:59:00.732Z,102199.16
2023-05-16T19:01:29.320Z,102200.28
2023-05-16T19:03:57.882Z,102199.16
2023-05-16T19:06:26.736Z,102210.06
2023-05-16T19:08:55.078Z,102201.47
2023-05-16T19:11:24.866Z,102199.41
2023-05-16T19:13:53.195Z,102201.28
2023-05-16T19:16:21.705Z,102209.44
2023-05-16T19:18:50.349Z,102211.38
2023-05-16T19:21:20.794Z,102217.94
2023-05-16T19:23:49.069Z,102215.56
2023-05-16T19:26:17.631Z,102221.41
2023-05-16T19:28:48.079Z,102214.34
2023-05-16T19:31:16.396Z,102212.78
2023-05-16T19:33:44.753Z,102220.47
2023-05-16T19:36:13.068Z,102226.31
2023-05-16T19:38:41.462Z,102220.41
2023-05-16T19:41:10.183Z,102221.09
2023-05-16T19:43:38.732Z,102230.41
2023-05-16T19:46:08.477Z,102229.19
2023-05-16T19:48:37.041Z,102237.25
2023-05-16T19:51:05.706Z,102242.94
2023-05-16T19:53:33.993Z,102246.72
2023-05-16T19:56:04.390Z,102247.75
2023-05-16T19:58:32.681Z,102246.84
2023-05-16T20:01:01.046Z,102251.44
2023-05-16T20:03:31.047Z,102250.94
2023-05-16T20:05:59.403Z,102251.28
2023-05-16T20:08:27.759Z,102253.22
2023-05-16T20:10:57.308Z,102268.44
2023-05-16T20:13:26.204Z,102267.97
2023-05-16T20:15:54.479Z,102274.59
2023-05-16T20:18:22.951Z,102273.66
2023-05-16T20:20:52.709Z,102275.97
2023-05-16T20:23:21.552Z,102275.81
2023-05-16T20:25:49.972Z,102277.34
2023-05-16T20:28:18.306Z,102267.09
2023-05-16T20:30:46.597Z,102282.63
2023-05-16T20:33:15.034Z,102284.94
2023-05-16T20:35:43.296Z,102289.59
2023-05-16T20:38:13.027Z,102291.03
2023-05-16T20:40:41.936Z,102289.44
2023-05-16T20:43:10.434Z,102285.50
2023-05-16T20:45:38.982Z,102281.50
2023-05-16T20:48:07.521Z,102291.16
2023-05-16T20:50:38.946Z,102280.63
2023-05-16T20:53:07.437Z,102287.53
2023-05-16T20:55:37.360Z,102300.25
2023-05-16T20:58:06.217Z,102291.16
2023-05-16T21:00:34.676Z,102292.97
2023-05-16T21:03:03.523Z,102291.59
2023-05-16T21:05:33.555Z,102304.34
2023-05-16T21:08:01.858Z,102294.81
2023-05-16T21:10:30.370Z,102303.59
2023-05-16T21:13:00.039Z,102308.81
2023-05-16T21:15:28.572Z,102302.50
2023-05-16T21:17:57.265Z,102298.41
2023-05-16T21:20:25.700Z,102301.34
2023-05-16T21:22:54.033Z,102298.84
2023-05-16T21:25:22.551Z,102290.84
2023-05-16T21:27:50.871Z,102298.13
2023-05-16T21:30:20.778Z,102293.13
2023-05-16T21:32:49.138Z,102297.16
2023-05-16T21:35:17.507Z,102299.75
2023-05-16T21:37:45.785Z,102295.34
2023-05-16T21:40:18.971Z,102309.13
2023-05-16T21:42:47.317Z,102308.88
2023-05-16T21:45:16.547Z,102304.78
2023-05-16T21:47:47.102Z,102311.50
2023-05-16T21:50:15.490Z,102317.13
2023-05-16T21:52:43.840Z,102314.16
2023-05-16T21:55:12.390Z,102320.13
2023-05-16T21:57:40.995Z,102317.91
2023-05-16T22:00:10.868Z,102316.38
2023-05-16T22:02:39.378Z,102322.34
2023-05-16T22:05:10.732Z,102325.56
2023-05-16T22:07:39.208Z,102330.38
2023-05-16T22:10:10.735Z,102323.53
2023-05-16T22:12:39.631Z,102333.50
2023-05-16T22:15:09.202Z,102322.81
2023-05-16T22:17:37.800Z,102330.31
2023-05-16T22:20:09.502Z,102321.56
2023-05-16T22:22:37.779Z,102327.66
2023-05-16T22:25:07.357Z,102323.50
2023-05-16T22:27:35.634Z,102320.53
2023-05-16T22:30:04.116Z,102329.63
2023-05-16T22:32:32.450Z,102326.28
2023-05-16T22:35:00.913Z,102331.75
2023-05-16T22:37:30.651Z,102332.25
2023-05-16T22:39:58.943Z,102334.34
2023-05-16T22:42:27.333Z,102341.50
2023-05-16T22:44:55.710Z,102344.09
2023-05-16T22:47:24.030Z,102345.50
2023-05-16T22:49:52.277Z,102346.94
2023-05-16T22:52:22.155Z,102339.44
2023-05-16T22:54:51.949Z,102345.06
2023-05-16T22:57:20.667Z,102341.84
2023-05-16T22:59:48.937Z,102340.56
2023-05-16T23:02:17.258Z,102337.34
2023-05-16T23:04:45.670Z,102339.13
2023-05-16T23:07:13.970Z,102341.66
2023-05-16T23:09:42.547Z,102338.50
2023-05-16T23:12:12.436Z,102340.75
2023-05-16T23:14:40.735Z,102343.75
2023-05-16T23:17:09.046Z,102344.84
2023-05-16T23:19:37.446Z,102344.84
2023-05-16T23:22:08.687Z,102340.91
2023-05-16T23:24:36.750Z,102348.56
2023-05-16T23:27:05.350Z,102352.66
2023-05-16T23:29:35.008Z,102356.84
2023-05-16T23:32:03.417Z,102346.28
2023-05-16T23:34:31.733Z,102354.75
2023-05-16T23:36:59.969Z,102355.84
2023-05-16T23:39:28.225Z,102348.06
2023-05-16T23:41:56.530Z,102349.16
2023-05-16T23:44:24.913Z,102354.41
2023-05-16T23:46:54.601Z,102343.09
2023-05-16T23:49:22.846Z,102350.72
2023-05-16T23:54:22.381Z,102357.59
2023-05-16T23:56:51.110Z,102357.91
2023-05-16T23:59:20.382Z,102361.22
